createdAt,value
2023-02-24T00:02:00.945Z,3.47
2023-02-24T00:04:30.640Z,3.70
2023-02-24T00:07:01.120Z,3.38
2023-02-24T00:09:30.909Z,3.55
2023-02-24T00:12:00.778Z,3.20
2023-02-24T00:14:30.477Z,3.70
2023-02-24T00:16:59.734Z,3.38
2023-02-24T00:19:32.669Z,3.90
2023-02-24T00:22:03.373Z,3.75
2023-02-24T00:24:32.236Z,3.63
2023-02-24T00:27:02.098Z,4.05
2023-02-24T00:29:32.495Z,3.90
2023-02-24T00:32:02.833Z,3.45
2023-02-24T00:34:33.617Z,4.13
2023-02-24T00:37:06.911Z,3.85
2023-02-24T00:39:36.596Z,4.00
2023-02-24T00:42:06.433Z,4.15
2023-02-24T00:44:37.481Z,3.67
2023-02-24T00:47:07.513Z,4.10
2023-02-24T00:49:42.457Z,3.55
2023-02-24T00:52:14.254Z,4.05
2023-02-24T00:54:43.376Z,4.22
2023-02-24T00:57:12.135Z,4.05
2023-02-24T00:59:41.183Z,4.40
2023-02-24T01:02:11.502Z,4.15
2023-02-24T01:04:40.281Z,4.40
2023-02-24T01:07:11.187Z,4.50
2023-02-24T01:09:42.303Z,4.57
2023-02-24T01:12:28.982Z,3.95
2023-02-24T01:14:58.305Z,4.13
2023-02-24T01:17:26.935Z,4.30
2023-02-24T01:20:00.346Z,4.13
2023-02-24T01:22:29.314Z,4.68
2023-02-24T01:24:59.452Z,4.30
2023-02-24T01:27:28.134Z,4.93
2023-02-24T01:29:57.030Z,4.90
2023-02-24T01:32:28.920Z,4.72
2023-02-24T01:34:57.854Z,5.32
2023-02-24T01:37:26.616Z,4.90
2023-02-24T01:39:55.753Z,4.82
2023-02-24T01:42:27.186Z,4.88
2023-02-24T01:45:21.341Z,4.88
2023-02-24T01:47:50.809Z,5.35
2023-02-24T01:50:22.007Z,5.03
2023-02-24T01:52:51.766Z,5.45
2023-02-24T01:55:22.843Z,4.85
2023-02-24T01:57:55.521Z,4.97
2023-02-24T02:00:37.719Z,4.93
2023-02-24T02:03:13.133Z,4.60
2023-02-24T02:05:43.237Z,5.00
2023-02-24T02:08:12.982Z,5.15
2023-02-24T02:10:44.187Z,4.80
2023-02-24T02:13:16.749Z,5.13
2023-02-24T02:15:49.103Z,4.70
2023-02-24T02:18:20.684Z,5.35
2023-02-24T02:21:08.701Z,4.10
2023-02-24T02:23:55.165Z,3.88
2023-02-24T02:26:40.465Z,4.65
2023-02-24T02:29:28.505Z,4.00
2023-02-24T02:32:10.862Z,4.70
2023-02-24T02:34:45.387Z,4.50
2023-02-24T02:37:15.849Z,3.13
2023-02-24T02:39:49.978Z,3.60
2023-02-24T02:42:24.372Z,3.80
2023-02-24T02:44:56.127Z,3.90
2023-02-24T02:47:28.179Z,3.95
2023-02-24T02:50:01.735Z,4.30
2023-02-24T02:52:31.872Z,3.80
2023-02-24T02:55:02.305Z,3.47
2023-02-24T02:57:34.010Z,4.55
2023-02-24T03:00:10.796Z,4.18
2023-02-24T03:02:44.471Z,4.22
2023-02-24T03:05:20.374Z,3.95
2023-02-24T03:07:52.347Z,3.97
2023-02-24T03:10:24.989Z,3.95
2023-02-24T03:12:55.297Z,4.70
2023-02-24T03:15:26.183Z,4.18
2023-02-24T03:17:56.672Z,4.28
2023-02-24T03:20:32.683Z,4.38
2023-02-24T03:23:03.048Z,4.70
2023-02-24T03:25:38.246Z,4.68
2023-02-24T03:28:13.113Z,5.35
2023-02-24T03:30:44.518Z,5.53
2023-02-24T03:33:16.859Z,4.82
2023-02-24T03:35:51.568Z,4.80
2023-02-24T03:38:24.495Z,4.18
2023-02-24T03:40:56.035Z,4.65
2023-02-24T03:43:30.507Z,4.40
2023-02-24T03:46:01.763Z,4.55
2023-02-24T03:48:33.090Z,4.60
2023-02-24T03:51:04.179Z,4.63
2023-02-24T03:53:56.847Z,4.53
2023-02-24T03:56:30.294Z,4.93
2023-02-24T03:59:06.267Z,4.25
2023-02-24T04:01:38.647Z,4.22
2023-02-24T04:04:10.551Z,4.63
2023-02-24T04:06:55.809Z,4.18
2023-02-24T04:09:29.778Z,4.15
2023-02-24T04:12:10.017Z,4.20
2023-02-24T04:14:43.537Z,4.47
2023-02-24T04:17:19.447Z,4.80
2023-02-24T04:19:50.873Z,5.15
2023-02-24T04:22:24.788Z,5.47
2023-02-24T04:24:55.575Z,5.50
2023-02-24T04:27:25.734Z,5.40
2023-02-24T04:30:01.347Z,5.70
2023-02-24T04:32:32.369Z,5.65
2023-02-24T04:35:06.543Z,5.82
2023-02-24T04:37:39.752Z,5.50
2023-02-24T04:40:12.254Z,5.45
2023-02-24T04:42:46.491Z,5.40
2023-02-24T04:45:16.591Z,5.20
2023-02-24T04:47:50.150Z,6.03
2023-02-24T04:50:24.022Z,5.35
2023-02-24T04:52:55.552Z,4.55
2023-02-24T04:55:29.179Z,4.85
2023-02-24T04:57:57.984Z,5.07
2023-02-24T05:00:27.078Z,4.95
2023-02-24T05:02:57.071Z,4.45
2023-02-24T05:05:27.893Z,4.60
2023-02-24T05:08:02.994Z,4.70
2023-02-24T05:10:33.443Z,4.63
2023-02-24T05:13:02.645Z,5.20
2023-02-24T05:15:32.267Z,4.55
2023-02-24T05:18:03.328Z,4.40
2023-02-24T05:20:49.025Z,4.82
2023-02-24T05:23:19.286Z,5.75
2023-02-24T05:25:48.674Z,6.10
2023-02-24T05:28:17.432Z,5.00
2023-02-24T05:30:46.210Z,4.45
2023-02-24T05:33:15.130Z,4.72
2023-02-24T05:35:44.002Z,4.40
2023-02-24T05:38:14.070Z,4.50
2023-02-24T05:40:46.813Z,4.32
2023-02-24T05:43:18.321Z,5.03
2023-02-24T05:45:47.285Z,4.90
2023-02-24T05:48:16.499Z,4.93
2023-02-24T05:50:55.074Z,4.57
2023-02-24T05:53:24.329Z,4.72
2023-02-24T05:55:54.403Z,4.30
2023-02-24T05:58:24.593Z,4.43
2023-02-24T06:00:53.234Z,4.60
2023-02-24T06:03:30.973Z,4.00
2023-02-24T06:06:05.595Z,3.35
2023-02-24T06:08:42.294Z,3.03
2023-02-24T06:11:13.025Z,3.40
2023-02-24T06:13:44.999Z,2.72
2023-02-24T06:16:15.213Z,3.22
2023-02-24T06:18:44.358Z,2.78
2023-02-24T06:21:13.669Z,2.80
2023-02-24T06:23:42.695Z,3.03
2023-02-24T06:26:19.470Z,2.67
2023-02-24T06:28:55.263Z,2.75
2023-02-24T06:31:24.287Z,2.70
2023-02-24T06:33:53.357Z,2.38
2023-02-24T06:36:22.446Z,2.50
2023-02-24T06:38:52.639Z,2.10
2023-02-24T06:41:23.110Z,2.15
2023-02-24T06:43:52.967Z,2.33
2023-02-24T06:46:21.796Z,2.38
2023-02-24T06:48:51.042Z,2.60
2023-02-24T06:51:20.106Z,2.30
2023-02-24T06:53:50.512Z,2.60
2023-02-24T06:56:19.915Z,2.28
2023-02-24T06:58:57.240Z,2.28
2023-02-24T07:01:28.015Z,2.17
2023-02-24T07:04:23.528Z,2.33
2023-02-24T07:06:53.259Z,2.13
2023-02-24T07:09:23.095Z,2.00
2023-02-24T07:11:56.717Z,2.20
2023-02-24T07:14:27.900Z,3.00
2023-02-24T07:16:58.358Z,2.50
2023-02-24T07:19:29.190Z,2.20
2023-02-24T07:22:00.325Z,2.10
2023-02-24T07:24:36.469Z,2.47
2023-02-24T07:27:06.699Z,2.38
2023-02-24T07:29:37.753Z,2.28
2023-02-24T07:32:08.691Z,2.17
2023-02-24T07:34:40.411Z,2.20
2023-02-24T07:37:09.649Z,1.88
2023-02-24T07:39:39.267Z,2.13
2023-02-24T07:42:08.441Z,2.05
2023-02-24T07:44:49.143Z,2.00
2023-02-24T07:47:18.016Z,2.08
2023-02-24T07:49:46.980Z,2.00
2023-02-24T07:52:16.255Z,1.75
2023-02-24T07:54:45.065Z,2.13
2023-02-24T07:57:14.694Z,1.80
2023-02-24T07:59:46.803Z,1.90
2023-02-24T08:02:18.519Z,1.77
2023-02-24T08:04:51.530Z,2.00
2023-02-24T08:07:24.733Z,2.22
2023-02-24T08:10:24.255Z,2.08
2023-02-24T08:12:55.532Z,2.03
2023-02-24T08:15:25.129Z,1.92
2023-02-24T08:17:59.623Z,2.10
2023-02-24T08:20:30.014Z,1.98
2023-02-24T08:22:58.928Z,2.20
2023-02-24T08:25:35.808Z,1.95
2023-02-24T08:28:08.457Z,1.90
2023-02-24T08:30:40.185Z,2.00
2023-02-24T08:33:15.879Z,1.80
2023-02-24T08:35:45.727Z,2.13
2023-02-24T08:38:16.089Z,1.90
2023-02-24T08:40:51.359Z,1.67
2023-02-24T08:43:31.198Z,1.80
2023-02-24T08:46:01.047Z,1.90
2023-02-24T08:48:38.331Z,2.00
2023-02-24T08:51:10.004Z,2.00
2023-02-24T08:53:40.913Z,1.70
2023-02-24T08:56:11.605Z,2.10
2023-02-24T08:58:47.182Z,1.65
2023-02-24T09:01:24.510Z,4.10
2023-02-24T09:03:55.869Z,2.20
2023-02-24T09:06:26.650Z,1.98
2023-02-24T09:09:13.134Z,2.10
2023-02-24T09:11:44.252Z,1.90
2023-02-24T09:14:26.109Z,2.00
2023-02-24T09:17:06.512Z,1.95
2023-02-24T09:20:01.843Z,1.63
2023-02-24T09:22:49.167Z,1.70
2023-02-24T09:25:24.112Z,1.70
2023-02-24T09:27:55.720Z,1.58
2023-02-24T09:30:39.152Z,1.80
2023-02-24T09:33:08.981Z,1.80
2023-02-24T09:35:41.931Z,1.98
2023-02-24T09:38:10.790Z,1.50
2023-02-24T09:40:48.964Z,1.90
2023-02-24T09:43:20.046Z,1.90
2023-02-24T09:45:53.674Z,2.17
2023-02-24T09:48:29.630Z,1.60
2023-02-24T09:51:05.197Z,1.65
2023-02-24T09:53:41.969Z,1.45
2023-02-24T09:56:16.975Z,1.67
2023-02-24T09:58:48.869Z,1.40
2023-02-24T10:01:33.712Z,1.20
2023-02-24T10:04:20.166Z,1.27
2023-02-24T10:06:51.993Z,1.20
2023-02-24T10:09:24.718Z,1.60
2023-02-24T10:11:58.123Z,1.48
2023-02-24T10:14:42.728Z,1.75
2023-02-24T10:17:25.402Z,1.60
2023-02-24T10:20:00.256Z,1.50
2023-02-24T10:22:39.878Z,1.70
2023-02-24T10:25:21.103Z,1.65
2023-02-24T10:27:58.328Z,1.33
2023-02-24T10:30:41.909Z,1.52
2023-02-24T10:33:20.636Z,1.50
2023-02-24T10:35:50.351Z,1.77
2023-02-24T10:38:20.572Z,1.25
2023-02-24T10:40:56.713Z,1.30
2023-02-24T10:43:31.599Z,1.60
2023-02-24T10:46:07.248Z,1.55
2023-02-24T10:48:41.826Z,1.35
2023-02-24T10:51:22.632Z,1.10
2023-02-24T10:54:10.203Z,1.13
2023-02-24T10:56:55.367Z,1.10
2023-02-24T10:59:58.278Z,1.38
2023-02-24T11:02:32.953Z,1.20
2023-02-24T11:05:25.054Z,0.90
2023-02-24T11:08:07.453Z,0.77
2023-02-24T11:10:52.963Z,0.90
2023-02-24T11:13:40.286Z,1.10
2023-02-24T11:16:27.938Z,0.90
2023-02-24T11:18:57.598Z,0.90
2023-02-24T11:21:27.849Z,1.00
2023-02-24T11:23:59.593Z,0.90
2023-02-24T11:26:34.126Z,0.80
2023-02-24T11:29:13.218Z,0.85
2023-02-24T11:31:46.842Z,0.80
2023-02-24T11:34:20.723Z,0.95
2023-02-24T11:36:59.413Z,1.08
2023-02-24T11:39:33.939Z,1.17
2023-02-24T11:42:06.424Z,1.00
2023-02-24T11:44:38.099Z,0.93
2023-02-24T11:47:09.712Z,1.00
2023-02-24T11:49:42.377Z,0.95
2023-02-24T11:52:15.818Z,1.15
2023-02-24T11:54:46.734Z,1.10
2023-02-24T11:57:18.798Z,1.30
2023-02-24T11:59:50.362Z,1.00
2023-02-24T12:02:21.637Z,1.00
2023-02-24T12:04:56.727Z,1.10
2023-02-24T12:07:28.953Z,0.90
2023-02-24T12:10:15.619Z,1.00
2023-02-24T12:12:49.840Z,0.80
2023-02-24T12:15:22.882Z,0.82
2023-02-24T12:17:59.159Z,0.80
2023-02-24T12:20:30.208Z,1.10
2023-02-24T12:23:00.347Z,1.10
2023-02-24T12:25:30.696Z,0.80
2023-02-24T12:28:10.957Z,0.80
2023-02-24T12:30:49.755Z,0.90
2023-02-24T12:33:28.056Z,0.90
2023-02-24T12:36:04.410Z,1.17
2023-02-24T12:38:41.008Z,1.05
2023-02-24T12:41:17.693Z,1.10
2023-02-24T12:43:51.808Z,0.80
2023-02-24T12:46:23.844Z,0.93
2023-02-24T12:49:09.320Z,0.95
2023-02-24T12:51:43.818Z,0.88
2023-02-24T12:54:18.762Z,1.27
2023-02-24T12:56:54.497Z,1.00
2023-02-24T12:59:27.581Z,0.95
2023-02-24T13:01:59.718Z,0.80
2023-02-24T13:04:41.295Z,0.82
2023-02-24T13:07:14.705Z,0.90
2023-02-24T13:09:49.235Z,1.17
2023-02-24T13:12:20.013Z,0.80
2023-02-24T13:14:50.955Z,1.20
2023-02-24T13:17:21.694Z,1.23
2023-02-24T13:19:52.245Z,1.05
2023-02-24T13:22:28.392Z,1.00
2023-02-24T13:24:58.819Z,0.82
2023-02-24T13:27:28.958Z,0.98
2023-02-24T13:30:00.980Z,0.90
2023-02-24T13:32:31.854Z,1.02
2023-02-24T13:35:02.198Z,1.05
2023-02-24T13:37:32.409Z,0.80
2023-02-24T13:40:01.083Z,1.35
2023-02-24T13:42:30.642Z,1.30
2023-02-24T13:45:07.508Z,1.27
2023-02-24T13:47:55.836Z,1.48
2023-02-24T13:50:28.962Z,1.10
2023-02-24T13:53:06.743Z,1.00
2023-02-24T13:55:43.830Z,1.17
2023-02-24T13:58:25.040Z,1.30
2023-02-24T14:01:00.074Z,1.20
2023-02-24T14:03:29.643Z,1.40
2023-02-24T14:05:59.295Z,1.50
2023-02-24T14:08:31.945Z,1.48
2023-02-24T14:11:03.602Z,1.50
2023-02-24T14:13:34.347Z,1.33
2023-02-24T14:16:08.359Z,1.02
2023-02-24T14:18:37.466Z,1.13
2023-02-24T14:21:06.411Z,1.25
2023-02-24T14:23:37.651Z,1.63
2023-02-24T14:26:08.008Z,1.95
2023-02-24T14:28:38.114Z,1.52
2023-02-24T14:31:14.628Z,1.40
2023-02-24T14:33:44.263Z,1.20
2023-02-24T14:36:16.707Z,1.08
2023-02-24T14:38:46.441Z,1.38
2023-02-24T14:41:21.150Z,1.23
2023-02-24T14:43:49.910Z,1.30
2023-02-24T14:46:20.585Z,1.10
2023-02-24T14:48:58.638Z,1.23
2023-02-24T14:51:29.546Z,1.20
2023-02-24T14:53:59.789Z,1.77
2023-02-24T14:56:30.443Z,1.75
2023-02-24T14:59:02.217Z,1.15
2023-02-24T15:01:34.479Z,1.20
2023-02-24T15:04:11.898Z,1.20
2023-02-24T15:06:43.754Z,1.40
2023-02-24T15:09:14.850Z,1.00
2023-02-24T15:11:43.974Z,1.05
2023-02-24T15:14:20.934Z,1.00
2023-02-24T15:16:53.281Z,1.20
2023-02-24T15:19:26.836Z,0.93
2023-02-24T15:21:55.651Z,1.15
2023-02-24T15:24:27.625Z,1.02
2023-02-24T15:26:57.312Z,0.90
2023-02-24T15:29:27.781Z,1.35
2023-02-24T15:31:58.443Z,1.48
2023-02-24T15:34:29.172Z,1.30
2023-02-24T15:37:01.184Z,1.20
2023-02-24T15:39:31.350Z,1.00
2023-02-24T15:42:08.618Z,1.10
2023-02-24T15:44:38.317Z,1.20
2023-02-24T15:47:22.506Z,1.30
2023-02-24T15:49:51.355Z,2.10
2023-02-24T15:52:22.454Z,1.23
2023-02-24T15:54:51.172Z,1.27
2023-02-24T15:57:20.550Z,0.98
2023-02-24T15:59:50.457Z,1.20
2023-02-24T16:02:21.247Z,0.90
2023-02-24T16:04:51.695Z,1.20
2023-02-24T16:07:22.568Z,1.42
2023-02-24T16:09:52.222Z,0.90
2023-02-24T16:12:23.021Z,1.13
2023-02-24T16:14:55.819Z,1.23
2023-02-24T16:17:30.524Z,1.55
2023-02-24T16:19:59.289Z,1.52
2023-02-24T16:22:28.458Z,1.20
2023-02-24T16:24:57.557Z,1.20
2023-02-24T16:27:27.463Z,1.02
2023-02-24T16:29:56.115Z,1.15
2023-02-24T16:32:26.057Z,1.25
2023-02-24T16:34:56.531Z,1.20
2023-02-24T16:37:26.257Z,1.02
2023-02-24T16:39:55.025Z,1.30
2023-02-24T16:42:23.725Z,0.95
2023-02-24T16:44:52.922Z,1.05
2023-02-24T16:47:24.312Z,1.92
2023-02-24T16:49:55.403Z,1.00
2023-02-24T16:52:25.811Z,1.02
2023-02-24T16:54:54.592Z,1.48
2023-02-24T16:57:25.731Z,1.05
2023-02-24T16:59:54.971Z,1.33
2023-02-24T17:02:25.197Z,1.70
2023-02-24T17:04:54.190Z,1.80
2023-02-24T17:07:23.142Z,1.67
2023-02-24T17:09:53.257Z,1.65
2023-02-24T17:12:22.601Z,1.67
2023-02-24T17:14:51.433Z,2.00
2023-02-24T17:17:21.596Z,1.80
2023-02-24T17:19:51.811Z,2.05
2023-02-24T17:22:22.304Z,1.83
2023-02-24T17:24:51.241Z,1.90
2023-02-24T17:27:21.606Z,1.88
2023-02-24T17:29:50.372Z,1.60
2023-02-24T17:32:19.458Z,2.35
2023-02-24T17:34:48.338Z,4.60
2023-02-24T17:37:17.392Z,2.85
2023-02-24T17:39:46.162Z,2.78
2023-02-24T17:42:15.392Z,2.10
2023-02-24T17:44:45.474Z,2.38
2023-02-24T17:47:14.169Z,2.38
2023-02-24T17:49:42.886Z,2.30
2023-02-24T17:52:11.922Z,2.35
2023-02-24T17:54:40.692Z,2.20
2023-02-24T17:57:09.466Z,1.80
2023-02-24T17:59:38.250Z,2.03
2023-02-24T18:02:08.697Z,1.98
2023-02-24T18:04:37.627Z,2.25
2023-02-24T18:07:06.300Z,1.95
2023-02-24T18:09:35.052Z,2.58
2023-02-24T18:12:03.881Z,2.95
2023-02-24T18:14:32.535Z,2.90
2023-02-24T18:17:01.221Z,3.90
2023-02-24T18:19:31.542Z,3.67
2023-02-24T18:22:00.216Z,2.85
2023-02-24T18:24:29.134Z,1.88
2023-02-24T18:26:57.810Z,1.40
2023-02-24T18:29:26.667Z,1.42
2023-02-24T18:31:55.431Z,2.50
2023-02-24T18:34:24.220Z,2.58
2023-02-24T18:36:54.328Z,1.80
2023-02-24T18:39:23.084Z,1.88
2023-02-24T18:41:51.824Z,2.17
2023-02-24T18:44:20.685Z,1.90
2023-02-24T18:46:49.532Z,1.60
2023-02-24T18:49:18.368Z,1.92
2023-02-24T18:51:48.975Z,6.15
2023-02-24T18:54:20.439Z,2.40
2023-02-24T18:56:49.129Z,3.10
2023-02-24T18:59:18.089Z,2.50
2023-02-24T19:01:46.929Z,2.50
2023-02-24T19:04:16.521Z,2.03
2023-02-24T19:06:49.101Z,2.05
2023-02-24T19:09:22.542Z,2.38
2023-02-24T19:11:52.477Z,2.28
2023-02-24T19:14:21.447Z,1.48
2023-02-24T19:16:50.176Z,1.95
2023-02-24T19:19:18.936Z,1.75
2023-02-24T19:21:48.562Z,1.55
2023-02-24T19:24:17.670Z,1.60
2023-02-24T19:26:47.805Z,2.30
2023-02-24T19:29:17.306Z,1.88
2023-02-24T19:31:46.658Z,1.50
2023-02-24T19:34:16.308Z,1.67
2023-02-24T19:36:45.241Z,1.70
2023-02-24T19:39:15.571Z,1.63
2023-02-24T19:41:44.376Z,2.08
2023-02-24T19:44:14.409Z,1.20
2023-02-24T19:46:43.340Z,1.40
2023-02-24T19:49:12.107Z,1.30
2023-02-24T19:51:40.697Z,1.33
2023-02-24T19:54:09.414Z,1.00
2023-02-24T19:56:38.448Z,2.67
2023-02-24T19:59:09.365Z,10.10
2023-02-24T20:01:39.379Z,5.45
2023-02-24T20:04:08.353Z,3.13
2023-02-24T20:06:37.689Z,4.47
2023-02-24T20:09:07.316Z,2.45
2023-02-24T20:11:37.317Z,2.03
2023-02-24T20:14:06.106Z,1.88
2023-02-24T20:16:36.928Z,2.03
2023-02-24T20:19:07.415Z,1.58
2023-02-24T20:21:36.757Z,1.80
2023-02-24T20:24:06.070Z,1.55
2023-02-24T20:26:34.772Z,1.83
2023-02-24T20:29:03.521Z,1.70
2023-02-24T20:31:32.301Z,1.58
2023-02-24T20:34:00.963Z,1.60
2023-02-24T20:36:31.156Z,2.20
2023-02-24T20:38:59.879Z,2.15
2023-02-24T20:41:29.640Z,2.53
2023-02-24T20:43:58.454Z,4.88
2023-02-24T20:46:28.354Z,4.88
2023-02-24T20:48:57.956Z,4.43
2023-02-24T20:51:26.783Z,3.85
2023-02-24T20:53:58.492Z,4.97
2023-02-24T20:56:27.498Z,6.60
2023-02-24T20:58:59.902Z,6.03
2023-02-24T21:01:29.094Z,5.38
2023-02-24T21:03:57.794Z,3.63
2023-02-24T21:06:27.220Z,2.75
2023-02-24T21:08:57.594Z,1.83
2023-02-24T21:11:26.721Z,1.92
2023-02-24T21:13:55.485Z,1.35
2023-02-24T21:16:25.257Z,2.17
2023-02-24T21:18:55.803Z,1.45
2023-02-24T21:21:24.443Z,2.40
2023-02-24T21:23:53.283Z,3.53
2023-02-24T21:26:26.793Z,10.00
2023-02-24T21:28:57.824Z,5.75
2023-02-24T21:31:27.520Z,1.92
2023-02-24T21:33:56.465Z,1.83
2023-02-24T21:36:28.117Z,1.52
2023-02-24T21:38:57.216Z,1.60
2023-02-24T21:41:27.282Z,1.40
2023-02-24T21:43:56.466Z,1.83
2023-02-24T21:46:28.445Z,2.25
2023-02-24T21:48:57.707Z,1.50
2023-02-24T21:51:26.938Z,1.63
2023-02-24T21:53:56.755Z,2.25
2023-02-24T21:56:27.584Z,2.13
2023-02-24T21:58:58.530Z,1.88
2023-02-24T22:01:28.205Z,1.48
2023-02-24T22:03:57.685Z,2.60
2023-02-24T22:06:29.572Z,4.38
2023-02-24T22:08:59.662Z,4.35
2023-02-24T22:11:32.463Z,5.97
2023-02-24T22:14:01.178Z,2.75
2023-02-24T22:16:29.903Z,1.98
2023-02-24T22:18:58.637Z,2.20
2023-02-24T22:21:29.255Z,2.35
2023-02-24T22:23:59.517Z,2.00
2023-02-24T22:26:28.386Z,2.47
2023-02-24T22:28:58.540Z,2.75
2023-02-24T22:31:28.602Z,2.33
2023-02-24T22:33:57.550Z,3.08
2023-02-24T22:36:27.855Z,2.33
2023-02-24T22:38:57.183Z,2.20
2023-02-24T22:41:27.661Z,1.77
2023-02-24T22:43:57.806Z,1.77
2023-02-24T22:46:27.661Z,2.60
2023-02-24T22:48:57.096Z,2.30
2023-02-24T22:51:26.096Z,2.90
2023-02-24T22:53:55.319Z,6.20
2023-02-24T22:56:25.874Z,4.68
2023-02-24T22:58:54.902Z,3.63
2023-02-24T23:01:25.951Z,4.13
2023-02-24T23:03:54.695Z,4.60
2023-02-24T23:06:26.084Z,2.70
2023-02-24T23:08:55.487Z,2.80
2023-02-24T23:11:27.771Z,3.58
2023-02-24T23:13:58.792Z,3.60
2023-02-24T23:16:31.644Z,5.72
2023-02-24T23:19:01.176Z,3.80
2023-02-24T23:21:34.068Z,5.30
2023-02-24T23:24:04.163Z,3.70
2023-02-24T23:26:33.386Z,1.90
2023-02-24T23:29:02.383Z,2.00
2023-02-24T23:31:32.694Z,2.05
2023-02-24T23:34:06.783Z,2.00
2023-02-24T23:36:35.963Z,1.83
2023-02-24T23:39:04.701Z,1.98
2023-02-24T23:41:33.656Z,1.75
2023-02-24T23:44:02.377Z,1.88
2023-02-24T23:46:33.652Z,1.95
2023-02-24T23:49:02.635Z,1.77
2023-02-24T23:51:46.970Z,1.73
2023-02-24T23:54:16.589Z,1.77
2023-02-24T23:56:45.305Z,1.88
2023-02-24T23:59:14.039Z,1.40
